sensor_id;sensor_type;location;lat;lon;timestamp;temperature;humidity
11838;DHT22;5978;51.020;6.764;2022-07-23T00:01:32;19.00;99.90
11838;DHT22;5978;51.020;6.764;2022-07-23T00:03:58;19.10;99.90
11838;DHT22;5978;51.020;6.764;2022-07-23T00:06:24;19.10;99.90
11838;DHT22;5978;51.020;6.764;2022-07-23T00:08:50;19.00;99.90
11838;DHT22;5978;51.020;6.764;2022-07-23T00:11:16;19.10;99.90
11838;DHT22;5978;51.020;6.764;2022-07-23T00:13:42;18.90;99.90
11838;DHT22;5978;51.020;6.764;2022-07-23T00:16:08;18.90;99.90
11838;DHT22;5978;51.020;6.764;2022-07-23T00:18:34;18.90;99.90
11838;DHT22;5978;51.020;6.764;2022-07-23T00:21:00;19.00;99.90
11838;DHT22;5978;51.020;6.764;2022-07-23T00:23:25;19.10;99.90
11838;DHT22;5978;51.020;6.764;2022-07-23T00:25:52;19.00;99.90
11838;DHT22;5978;51.020;6.764;2022-07-23T00:28:18;19.00;99.90
11838;DHT22;5978;51.020;6.764;2022-07-23T00:30:44;18.90;99.90
11838;DHT22;5978;51.020;6.764;2022-07-23T00:33:11;18.80;99.90
11838;DHT22;5978;51.020;6.764;2022-07-23T00:35:38;18.60;99.90
11838;DHT22;5978;51.020;6.764;2022-07-23T00:38:06;18.50;99.90
11838;DHT22;5978;51.020;6.764;2022-07-23T00:40:33;18.60;99.90
11838;DHT22;5978;51.020;6.764;2022-07-23T00:42:59;18.60;99.90
11838;DHT22;5978;51.020;6.764;2022-07-23T00:45:25;18.50;99.90
11838;DHT22;5978;51.020;6.764;2022-07-23T00:47:51;18.50;99.90
11838;DHT22;5978;51.020;6.764;2022-07-23T00:50:17;18.50;99.90
11838;DHT22;5978;51.020;6.764;2022-07-23T00:52:43;18.60;99.90
11838;DHT22;5978;51.020;6.764;2022-07-23T00:55:11;18.60;99.90
11838;DHT22;5978;51.020;6.764;2022-07-23T00:57:38;18.80;99.90
11838;DHT22;5978;51.020;6.764;2022-07-23T01:00:08;18.80;99.90
11838;DHT22;5978;51.020;6.764;2022-07-23T01:02:35;18.80;99.90
11838;DHT22;5978;51.020;6.764;2022-07-23T01:05:01;18.80;99.90
11838;DHT22;5978;51.020;6.764;2022-07-23T01:07:27;18.90;99.90
11838;DHT22;5978;51.020;6.764;2022-07-23T01:09:54;18.90;99.90
11838;DHT22;5978;51.020;6.764;2022-07-23T01:12:20;19.00;99.90
11838;DHT22;5978;51.020;6.764;2022-07-23T01:14:57;18.90;99.90
11838;DHT22;5978;51.020;6.764;2022-07-23T01:17:23;18.90;99.90
11838;DHT22;5978;51.020;6.764;2022-07-23T01:19:48;18.80;99.90
11838;DHT22;5978;51.020;6.764;2022-07-23T01:22:15;18.80;99.90
11838;DHT22;5978;51.020;6.764;2022-07-23T01:24:43;18.80;99.90
11838;DHT22;5978;51.020;6.764;2022-07-23T01:27:08;18.90;99.90
11838;DHT22;5978;51.020;6.764;2022-07-23T01:29:34;18.90;99.90
11838;DHT22;5978;51.020;6.764;2022-07-23T01:32:00;18.90;99.90
11838;DHT22;5978;51.020;6.764;2022-07-23T01:34:25;18.90;99.90
11838;DHT22;5978;51.020;6.764;2022-07-23T01:36:51;18.90;99.90
11838;DHT22;5978;51.020;6.764;2022-07-23T01:39:16;18.90;99.90
11838;DHT22;5978;51.020;6.764;2022-07-23T01:41:42;18.90;99.90
11838;DHT22;5978;51.020;6.764;2022-07-23T01:44:08;18.80;99.90
11838;DHT22;5978;51.020;6.764;2022-07-23T01:46:33;18.80;99.90
11838;DHT22;5978;51.020;6.764;2022-07-23T01:48:59;18.60;99.90
11838;DHT22;5978;51.020;6.764;2022-07-23T01:51:26;18.60;99.90
11838;DHT22;5978;51.020;6.764;2022-07-23T01:53:51;18.60;99.90
11838;DHT22;5978;51.020;6.764;2022-07-23T01:56:17;18.70;99.90
11838;DHT22;5978;51.020;6.764;2022-07-23T01:58:44;18.60;99.90
11838;DHT22;5978;51.020;6.764;2022-07-23T02:01:09;18.70;99.90
11838;DHT22;5978;51.020;6.764;2022-07-23T02:03:35;18.60;99.90
11838;DHT22;5978;51.020;6.764;2022-07-23T02:06:01;18.50;99.90
11838;DHT22;5978;51.020;6.764;2022-07-23T02:08:26;18.40;99.90
11838;DHT22;5978;51.020;6.764;2022-07-23T02:10:52;18.30;99.90
11838;DHT22;5978;51.020;6.764;2022-07-23T02:13:18;18.30;99.90
11838;DHT22;5978;51.020;6.764;2022-07-23T02:15:45;18.20;99.90
11838;DHT22;5978;51.020;6.764;2022-07-23T02:18:11;18.10;99.90
11838;DHT22;5978;51.020;6.764;2022-07-23T02:20:37;18.10;99.90
11838;DHT22;5978;51.020;6.764;2022-07-23T02:23:04;18.00;99.90
11838;DHT22;5978;51.020;6.764;2022-07-23T02:25:30;17.90;99.90
11838;DHT22;5978;51.020;6.764;2022-07-23T02:27:55;17.90;99.90
11838;DHT22;5978;51.020;6.764;2022-07-23T02:30:21;17.90;99.90
11838;DHT22;5978;51.020;6.764;2022-07-23T02:32:47;18.00;99.90
11838;DHT22;5978;51.020;6.764;2022-07-23T02:35:13;18.00;99.90
11838;DHT22;5978;51.020;6.764;2022-07-23T02:37:38;17.90;99.90
11838;DHT22;5978;51.020;6.764;2022-07-23T02:40:04;17.90;99.90
11838;DHT22;5978;51.020;6.764;2022-07-23T02:42:30;17.80;99.90
11838;DHT22;5978;51.020;6.764;2022-07-23T02:44:56;17.80;99.90
11838;DHT22;5978;51.020;6.764;2022-07-23T02:47:21;17.70;99.90
11838;DHT22;5978;51.020;6.764;2022-07-23T02:49:47;17.60;99.90
11838;DHT22;5978;51.020;6.764;2022-07-23T02:52:12;17.60;99.90
11838;DHT22;5978;51.020;6.764;2022-07-23T02:54:38;17.60;99.90
11838;DHT22;5978;51.020;6.764;2022-07-23T02:57:04;17.60;99.90
11838;DHT22;5978;51.020;6.764;2022-07-23T02:59:30;17.60;99.90
11838;DHT22;5978;51.020;6.764;2022-07-23T03:01:56;17.60;99.90
11838;DHT22;5978;51.020;6.764;2022-07-23T03:04:21;17.60;99.90
11838;DHT22;5978;51.020;6.764;2022-07-23T03:06:47;17.60;99.90
11838;DHT22;5978;51.020;6.764;2022-07-23T03:09:12;17.60;99.90
11838;DHT22;5978;51.020;6.764;2022-07-23T03:11:38;17.60;99.90
11838;DHT22;5978;51.020;6.764;2022-07-23T03:14:04;17.60;99.90
11838;DHT22;5978;51.020;6.764;2022-07-23T03:16:29;17.50;99.90
11838;DHT22;5978;51.020;6.764;2022-07-23T03:18:55;17.50;99.90
11838;DHT22;5978;51.020;6.764;2022-07-23T03:21:21;17.40;99.90
11838;DHT22;5978;51.020;6.764;2022-07-23T03:23:46;17.40;99.90
11838;DHT22;5978;51.020;6.764;2022-07-23T03:26:12;17.40;99.90
11838;DHT22;5978;51.020;6.764;2022-07-23T03:28:37;17.30;99.90
11838;DHT22;5978;51.020;6.764;2022-07-23T03:31:03;17.20;99.90
11838;DHT22;5978;51.020;6.764;2022-07-23T03:33:29;17.20;99.90
11838;DHT22;5978;51.020;6.764;2022-07-23T03:35:54;17.20;99.90
11838;DHT22;5978;51.020;6.764;2022-07-23T03:38:20;17.00;99.90
11838;DHT22;5978;51.020;6.764;2022-07-23T03:40:45;17.00;99.90
11838;DHT22;5978;51.020;6.764;2022-07-23T03:43:11;17.00;99.90
11838;DHT22;5978;51.020;6.764;2022-07-23T03:45:37;17.10;99.90
11838;DHT22;5978;51.020;6.764;2022-07-23T03:48:02;17.00;99.90
11838;DHT22;5978;51.020;6.764;2022-07-23T03:50:28;17.00;99.90
11838;DHT22;5978;51.020;6.764;2022-07-23T03:52:54;17.00;99.90
11838;DHT22;5978;51.020;6.764;2022-07-23T03:55:20;17.00;99.90
11838;DHT22;5978;51.020;6.764;2022-07-23T03:57:46;17.00;99.90
11838;DHT22;5978;51.020;6.764;2022-07-23T04:00:12;17.00;99.90
11838;DHT22;5978;51.020;6.764;2022-07-23T04:02:39;16.90;99.90
11838;DHT22;5978;51.020;6.764;2022-07-23T04:05:05;16.90;99.90
11838;DHT22;5978;51.020;6.764;2022-07-23T04:07:31;16.90;99.90
11838;DHT22;5978;51.020;6.764;2022-07-23T04:09:57;16.90;99.90
11838;DHT22;5978;51.020;6.764;2022-07-23T04:12:23;16.90;99.90
11838;DHT22;5978;51.020;6.764;2022-07-23T04:14:49;16.90;99.90
11838;DHT22;5978;51.020;6.764;2022-07-23T04:17:15;16.90;99.90
11838;DHT22;5978;51.020;6.764;2022-07-23T04:19:40;16.90;99.90
11838;DHT22;5978;51.020;6.764;2022-07-23T04:22:08;16.90;99.90
11838;DHT22;5978;51.020;6.764;2022-07-23T04:24:34;16.90;99.90
11838;DHT22;5978;51.020;6.764;2022-07-23T04:27:01;16.90;99.90
11838;DHT22;5978;51.020;6.764;2022-07-23T04:29:26;16.80;99.90
11838;DHT22;5978;51.020;6.764;2022-07-23T04:31:52;16.80;99.90
11838;DHT22;5978;51.020;6.764;2022-07-23T04:34:18;16.70;99.90
11838;DHT22;5978;51.020;6.764;2022-07-23T04:36:44;16.70;99.90
11838;DHT22;5978;51.020;6.764;2022-07-23T04:39:09;16.80;99.90
11838;DHT22;5978;51.020;6.764;2022-07-23T04:41:35;16.80;99.90
11838;DHT22;5978;51.020;6.764;2022-07-23T04:44:01;16.80;99.90
11838;DHT22;5978;51.020;6.764;2022-07-23T04:46:27;16.90;99.90
11838;DHT22;5978;51.020;6.764;2022-07-23T04:48:53;17.00;99.90
11838;DHT22;5978;51.020;6.764;2022-07-23T04:51:19;17.00;99.90
11838;DHT22;5978;51.020;6.764;2022-07-23T04:53:44;17.00;99.90
11838;DHT22;5978;51.020;6.764;2022-07-23T04:56:10;17.00;99.90
11838;DHT22;5978;51.020;6.764;2022-07-23T04:58:36;17.10;99.90
11838;DHT22;5978;51.020;6.764;2022-07-23T05:01:01;17.10;99.90
11838;DHT22;5978;51.020;6.764;2022-07-23T05:03:27;17.20;99.90
11838;DHT22;5978;51.020;6.764;2022-07-23T05:05:53;17.30;99.90
11838;DHT22;5978;51.020;6.764;2022-07-23T05:08:19;17.30;99.90
11838;DHT22;5978;51.020;6.764;2022-07-23T05:10:44;17.30;99.90
11838;DHT22;5978;51.020;6.764;2022-07-23T05:13:10;17.40;99.90
11838;DHT22;5978;51.020;6.764;2022-07-23T05:15:36;17.40;99.90
11838;DHT22;5978;51.020;6.764;2022-07-23T05:18:02;17.50;99.90
11838;DHT22;5978;51.020;6.764;2022-07-23T05:20:27;17.60;99.90
11838;DHT22;5978;51.020;6.764;2022-07-23T05:22:53;17.70;99.90
11838;DHT22;5978;51.020;6.764;2022-07-23T05:25:19;17.70;99.90
11838;DHT22;5978;51.020;6.764;2022-07-23T05:27:44;17.80;99.90
11838;DHT22;5978;51.020;6.764;2022-07-23T05:30:10;17.80;99.90
11838;DHT22;5978;51.020;6.764;2022-07-23T05:32:36;17.80;99.90
11838;DHT22;5978;51.020;6.764;2022-07-23T05:35:03;17.90;99.90
11838;DHT22;5978;51.020;6.764;2022-07-23T05:37:29;18.00;99.90
11838;DHT22;5978;51.020;6.764;2022-07-23T05:39:54;18.00;99.90
11838;DHT22;5978;51.020;6.764;2022-07-23T05:42:20;18.20;99.90
11838;DHT22;5978;51.020;6.764;2022-07-23T05:44:46;18.10;99.90
11838;DHT22;5978;51.020;6.764;2022-07-23T05:47:11;18.30;99.90
11838;DHT22;5978;51.020;6.764;2022-07-23T05:49:37;18.40;99.90
11838;DHT22;5978;51.020;6.764;2022-07-23T05:52:07;18.50;99.90
11838;DHT22;5978;51.020;6.764;2022-07-23T05:54:34;18.50;99.90
11838;DHT22;5978;51.020;6.764;2022-07-23T05:57:01;18.60;99.90
11838;DHT22;5978;51.020;6.764;2022-07-23T05:59:26;18.60;99.90
11838;DHT22;5978;51.020;6.764;2022-07-23T06:01:52;18.70;99.90
11838;DHT22;5978;51.020;6.764;2022-07-23T06:04:18;18.70;99.90
11838;DHT22;5978;51.020;6.764;2022-07-23T06:06:43;18.80;99.90
11838;DHT22;5978;51.020;6.764;2022-07-23T06:09:09;18.80;99.90
11838;DHT22;5978;51.020;6.764;2022-07-23T06:11:36;18.80;99.90
11838;DHT22;5978;51.020;6.764;2022-07-23T06:14:02;18.80;99.90
11838;DHT22;5978;51.020;6.764;2022-07-23T06:16:28;18.80;99.90
11838;DHT22;5978;51.020;6.764;2022-07-23T06:18:53;18.90;99.90
11838;DHT22;5978;51.020;6.764;2022-07-23T06:21:19;18.90;99.90
11838;DHT22;5978;51.020;6.764;2022-07-23T06:23:45;19.00;99.90
11838;DHT22;5978;51.020;6.764;2022-07-23T06:26:11;19.00;99.90
11838;DHT22;5978;51.020;6.764;2022-07-23T06:28:36;19.00;99.90
11838;DHT22;5978;51.020;6.764;2022-07-23T06:31:02;19.10;99.90
11838;DHT22;5978;51.020;6.764;2022-07-23T06:33:27;19.20;99.90
11838;DHT22;5978;51.020;6.764;2022-07-23T06:35:53;19.30;99.90
11838;DHT22;5978;51.020;6.764;2022-07-23T06:38:19;19.30;99.90
11838;DHT22;5978;51.020;6.764;2022-07-23T06:40:45;19.40;99.90
11838;DHT22;5978;51.020;6.764;2022-07-23T06:43:10;19.60;99.90
11838;DHT22;5978;51.020;6.764;2022-07-23T06:45:36;19.80;99.90
11838;DHT22;5978;51.020;6.764;2022-07-23T06:48:02;19.90;99.90
11838;DHT22;5978;51.020;6.764;2022-07-23T06:50:28;20.10;99.90
11838;DHT22;5978;51.020;6.764;2022-07-23T06:52:54;20.20;99.90
11838;DHT22;5978;51.020;6.764;2022-07-23T06:55:20;20.40;99.90
11838;DHT22;5978;51.020;6.764;2022-07-23T06:57:45;20.50;99.90
11838;DHT22;5978;51.020;6.764;2022-07-23T07:00:11;20.60;99.90
11838;DHT22;5978;51.020;6.764;2022-07-23T07:02:37;20.50;99.90
11838;DHT22;5978;51.020;6.764;2022-07-23T07:05:03;20.60;99.90
11838;DHT22;5978;51.020;6.764;2022-07-23T07:07:29;20.70;99.90
11838;DHT22;5978;51.020;6.764;2022-07-23T07:09:54;20.80;99.90
11838;DHT22;5978;51.020;6.764;2022-07-23T07:12:20;20.90;99.90
11838;DHT22;5978;51.020;6.764;2022-07-23T07:14:45;20.90;99.90
11838;DHT22;5978;51.020;6.764;2022-07-23T07:17:11;21.00;99.90
11838;DHT22;5978;51.020;6.764;2022-07-23T07:19:37;21.10;99.90
11838;DHT22;5978;51.020;6.764;2022-07-23T07:22:02;21.20;99.90
11838;DHT22;5978;51.020;6.764;2022-07-23T07:24:28;21.20;99.90
11838;DHT22;5978;51.020;6.764;2022-07-23T07:26:54;21.20;99.90
11838;DHT22;5978;51.020;6.764;2022-07-23T07:29:19;21.10;99.90
11838;DHT22;5978;51.020;6.764;2022-07-23T07:31:45;21.10;99.90
11838;DHT22;5978;51.020;6.764;2022-07-23T07:34:10;21.10;99.90
11838;DHT22;5978;51.020;6.764;2022-07-23T07:36:36;21.10;99.90
11838;DHT22;5978;51.020;6.764;2022-07-23T07:39:03;21.20;99.90
11838;DHT22;5978;51.020;6.764;2022-07-23T07:41:30;21.40;99.90
11838;DHT22;5978;51.020;6.764;2022-07-23T07:43:56;21.40;99.90
11838;DHT22;5978;51.020;6.764;2022-07-23T07:46:22;21.30;99.90
11838;DHT22;5978;51.020;6.764;2022-07-23T07:48:50;21.20;99.90
11838;DHT22;5978;51.020;6.764;2022-07-23T07:51:15;21.30;99.90
11838;DHT22;5978;51.020;6.764;2022-07-23T07:53:41;21.40;99.90
11838;DHT22;5978;51.020;6.764;2022-07-23T07:56:07;21.50;99.90
11838;DHT22;5978;51.020;6.764;2022-07-23T07:58:32;21.60;99.90
11838;DHT22;5978;51.020;6.764;2022-07-23T08:00:58;21.80;99.90
11838;DHT22;5978;51.020;6.764;2022-07-23T08:03:24;22.00;99.90
11838;DHT22;5978;51.020;6.764;2022-07-23T08:05:49;22.10;99.90
11838;DHT22;5978;51.020;6.764;2022-07-23T08:08:15;22.00;99.90
11838;DHT22;5978;51.020;6.764;2022-07-23T08:10:41;22.10;99.90
11838;DHT22;5978;51.020;6.764;2022-07-23T08:13:07;22.10;99.90
11838;DHT22;5978;51.020;6.764;2022-07-23T08:15:32;22.30;99.90
11838;DHT22;5978;51.020;6.764;2022-07-23T08:17:59;22.50;99.90
11838;DHT22;5978;51.020;6.764;2022-07-23T08:20:25;22.50;99.90
11838;DHT22;5978;51.020;6.764;2022-07-23T08:22:56;22.50;99.90
11838;DHT22;5978;51.020;6.764;2022-07-23T08:25:24;22.50;99.90
11838;DHT22;5978;51.020;6.764;2022-07-23T08:27:50;22.70;99.90
11838;DHT22;5978;51.020;6.764;2022-07-23T08:30:17;22.70;99.90
11838;DHT22;5978;51.020;6.764;2022-07-23T08:35:26;23.50;99.90
11838;DHT22;5978;51.020;6.764;2022-07-23T08:37:53;23.60;99.90
11838;DHT22;5978;51.020;6.764;2022-07-23T08:40:19;23.90;99.90
11838;DHT22;5978;51.020;6.764;2022-07-23T08:42:47;24.00;99.90
11838;DHT22;5978;51.020;6.764;2022-07-23T08:45:16;24.00;99.90
11838;DHT22;5978;51.020;6.764;2022-07-23T08:47:43;24.20;99.90
11838;DHT22;5978;51.020;6.764;2022-07-23T08:50:10;24.30;99.90
11838;DHT22;5978;51.020;6.764;2022-07-23T08:52:37;24.40;99.90
11838;DHT22;5978;51.020;6.764;2022-07-23T08:55:04;24.70;99.90
11838;DHT22;5978;51.020;6.764;2022-07-23T08:57:30;24.70;99.90
11838;DHT22;5978;51.020;6.764;2022-07-23T08:59:56;24.60;99.90
11838;DHT22;5978;51.020;6.764;2022-07-23T09:02:22;24.40;99.90
11838;DHT22;5978;51.020;6.764;2022-07-23T09:04:47;24.20;99.90
11838;DHT22;5978;51.020;6.764;2022-07-23T09:07:13;24.30;99.90
11838;DHT22;5978;51.020;6.764;2022-07-23T09:09:39;24.60;99.90
11838;DHT22;5978;51.020;6.764;2022-07-23T09:12:10;24.70;99.90
11838;DHT22;5978;51.020;6.764;2022-07-23T09:14:41;24.60;99.90
11838;DHT22;5978;51.020;6.764;2022-07-23T09:17:15;24.70;99.90
11838;DHT22;5978;51.020;6.764;2022-07-23T09:19:42;24.90;99.90
11838;DHT22;5978;51.020;6.764;2022-07-23T09:22:22;25.00;99.90
11838;DHT22;5978;51.020;6.764;2022-07-23T09:25:09;25.00;99.90
11838;DHT22;5978;51.020;6.764;2022-07-23T09:30:28;25.30;99.90
11838;DHT22;5978;51.020;6.764;2022-07-23T09:33:10;25.40;99.90
11838;DHT22;5978;51.020;6.764;2022-07-23T09:35:51;25.40;99.90
11838;DHT22;5978;51.020;6.764;2022-07-23T09:38:19;25.50;99.90
11838;DHT22;5978;51.020;6.764;2022-07-23T09:40:46;25.60;99.90
11838;DHT22;5978;51.020;6.764;2022-07-23T09:43:14;25.80;99.90
11838;DHT22;5978;51.020;6.764;2022-07-23T09:45:52;25.90;99.90
11838;DHT22;5978;51.020;6.764;2022-07-23T09:48:18;26.00;99.90
11838;DHT22;5978;51.020;6.764;2022-07-23T09:50:44;25.70;99.90
11838;DHT22;5978;51.020;6.764;2022-07-23T09:53:25;25.50;99.90
11838;DHT22;5978;51.020;6.764;2022-07-23T09:55:53;25.30;99.90
11838;DHT22;5978;51.020;6.764;2022-07-23T09:58:23;25.60;99.90
11838;DHT22;5978;51.020;6.764;2022-07-23T10:00:52;26.00;99.90
11838;DHT22;5978;51.020;6.764;2022-07-23T10:03:19;26.00;99.90
11838;DHT22;5978;51.020;6.764;2022-07-23T10:05:46;26.00;99.90
11838;DHT22;5978;51.020;6.764;2022-07-23T10:08:13;26.20;99.90
11838;DHT22;5978;51.020;6.764;2022-07-23T10:10:40;26.30;99.90
11838;DHT22;5978;51.020;6.764;2022-07-23T10:13:06;26.30;99.90
11838;DHT22;5978;51.020;6.764;2022-07-23T10:15:54;26.40;99.90
11838;DHT22;5978;51.020;6.764;2022-07-23T10:18:20;26.60;99.90
11838;DHT22;5978;51.020;6.764;2022-07-23T10:20:47;26.70;99.90
11838;DHT22;5978;51.020;6.764;2022-07-23T10:23:35;26.80;99.90
11838;DHT22;5978;51.020;6.764;2022-07-23T10:26:12;26.70;99.90
11838;DHT22;5978;51.020;6.764;2022-07-23T10:29:16;26.90;99.90
11838;DHT22;5978;51.020;6.764;2022-07-23T10:35:03;26.60;99.90
11838;DHT22;5978;51.020;6.764;2022-07-23T10:37:36;26.00;99.90
11838;DHT22;5978;51.020;6.764;2022-07-23T10:40:15;25.70;99.90
11838;DHT22;5978;51.020;6.764;2022-07-23T10:42:43;25.70;99.90
11838;DHT22;5978;51.020;6.764;2022-07-23T10:45:32;26.10;99.90
11838;DHT22;5978;51.020;6.764;2022-07-23T10:48:24;26.20;99.90
11838;DHT22;5978;51.020;6.764;2022-07-23T10:51:13;26.60;99.90
11838;DHT22;5978;51.020;6.764;2022-07-23T10:59:23;26.90;99.90
11838;DHT22;5978;51.020;6.764;2022-07-23T11:01:49;27.20;99.90
11838;DHT22;5978;51.020;6.764;2022-07-23T11:04:15;27.40;99.90
11838;DHT22;5978;51.020;6.764;2022-07-23T11:09:38;27.50;97.20
11838;DHT22;5978;51.020;6.764;2022-07-23T11:17:35;28.90;90.50
11838;DHT22;5978;51.020;6.764;2022-07-23T11:28:11;29.50;79.20
11838;DHT22;5978;51.020;6.764;2022-07-23T11:30:40;29.50;78.30
11838;DHT22;5978;51.020;6.764;2022-07-23T11:35:42;29.80;74.70
11838;DHT22;5978;51.020;6.764;2022-07-23T11:38:22;30.60;79.90
11838;DHT22;5978;51.020;6.764;2022-07-23T11:40:53;31.60;72.60
11838;DHT22;5978;51.020;6.764;2022-07-23T11:43:20;32.40;67.70
11838;DHT22;5978;51.020;6.764;2022-07-23T11:45:49;32.80;65.50
11838;DHT22;5978;51.020;6.764;2022-07-23T11:50:50;33.50;60.30
11838;DHT22;5978;51.020;6.764;2022-07-23T11:53:30;33.90;59.90
11838;DHT22;5978;51.020;6.764;2022-07-23T11:56:10;34.00;56.60
11838;DHT22;5978;51.020;6.764;2022-07-23T11:58:38;34.10;56.80
11838;DHT22;5978;51.020;6.764;2022-07-23T12:01:04;34.10;54.40
11838;DHT22;5978;51.020;6.764;2022-07-23T12:03:29;34.30;52.70
11838;DHT22;5978;51.020;6.764;2022-07-23T12:06:00;35.30;54.20
11838;DHT22;5978;51.020;6.764;2022-07-23T12:08:26;35.70;52.60
11838;DHT22;5978;51.020;6.764;2022-07-23T12:10:52;36.00;53.10
11838;DHT22;5978;51.020;6.764;2022-07-23T12:13:19;36.30;52.70
11838;DHT22;5978;51.020;6.764;2022-07-23T12:15:48;36.50;52.50
11838;DHT22;5978;51.020;6.764;2022-07-23T12:18:17;37.40;51.50
11838;DHT22;5978;51.020;6.764;2022-07-23T12:20:45;37.50;51.40
11838;DHT22;5978;51.020;6.764;2022-07-23T12:23:13;38.30;51.40
11838;DHT22;5978;51.020;6.764;2022-07-23T12:25:41;38.40;48.80
11838;DHT22;5978;51.020;6.764;2022-07-23T12:28:10;37.80;48.10
11838;DHT22;5978;51.020;6.764;2022-07-23T12:30:43;38.50;49.10
11838;DHT22;5978;51.020;6.764;2022-07-23T12:33:11;39.40;47.70
11838;DHT22;5978;51.020;6.764;2022-07-23T12:35:43;38.80;46.80
11838;DHT22;5978;51.020;6.764;2022-07-23T12:38:12;39.10;47.50
11838;DHT22;5978;51.020;6.764;2022-07-23T12:40:54;39.10;45.80
11838;DHT22;5978;51.020;6.764;2022-07-23T12:48:35;39.40;45.20
11838;DHT22;5978;51.020;6.764;2022-07-23T12:56:11;37.10;47.50
11838;DHT22;5978;51.020;6.764;2022-07-23T12:58:55;35.90;47.70
11838;DHT22;5978;51.020;6.764;2022-07-23T13:04:12;37.00;47.30
11838;DHT22;5978;51.020;6.764;2022-07-23T13:06:43;38.20;47.60
11838;DHT22;5978;51.020;6.764;2022-07-23T13:09:14;37.60;46.20
11838;DHT22;5978;51.020;6.764;2022-07-23T13:11:40;37.90;46.50
11838;DHT22;5978;51.020;6.764;2022-07-23T13:14:06;39.00;45.60
11838;DHT22;5978;51.020;6.764;2022-07-23T13:16:32;39.00;45.90
11838;DHT22;5978;51.020;6.764;2022-07-23T13:18:59;38.40;46.00
11838;DHT22;5978;51.020;6.764;2022-07-23T13:21:26;37.40;45.80
11838;DHT22;5978;51.020;6.764;2022-07-23T13:23:51;37.00;47.30
11838;DHT22;5978;51.020;6.764;2022-07-23T13:26:18;38.20;47.40
11838;DHT22;5978;51.020;6.764;2022-07-23T13:28:43;39.20;46.00
11838;DHT22;5978;51.020;6.764;2022-07-23T13:31:09;39.30;44.60
11838;DHT22;5978;51.020;6.764;2022-07-23T13:33:35;39.50;45.90
11838;DHT22;5978;51.020;6.764;2022-07-23T13:36:01;41.00;45.00
11838;DHT22;5978;51.020;6.764;2022-07-23T13:38:26;40.90;42.90
11838;DHT22;5978;51.020;6.764;2022-07-23T13:40:53;40.50;42.90
11838;DHT22;5978;51.020;6.764;2022-07-23T13:43:21;40.50;42.60
11838;DHT22;5978;51.020;6.764;2022-07-23T13:45:47;40.70;43.10
11838;DHT22;5978;51.020;6.764;2022-07-23T13:48:14;41.10;43.80
11838;DHT22;5978;51.020;6.764;2022-07-23T13:50:40;41.80;41.80
11838;DHT22;5978;51.020;6.764;2022-07-23T13:53:08;41.70;42.00
11838;DHT22;5978;51.020;6.764;2022-07-23T13:55:35;39.10;41.90
11838;DHT22;5978;51.020;6.764;2022-07-23T13:58:01;38.90;44.60
11838;DHT22;5978;51.020;6.764;2022-07-23T14:00:28;39.20;44.40
11838;DHT22;5978;51.020;6.764;2022-07-23T14:02:54;39.90;43.80
11838;DHT22;5978;51.020;6.764;2022-07-23T14:05:20;39.20;42.80
11838;DHT22;5978;51.020;6.764;2022-07-23T14:07:46;39.90;43.50
11838;DHT22;5978;51.020;6.764;2022-07-23T14:10:12;40.70;43.80
11838;DHT22;5978;51.020;6.764;2022-07-23T14:12:38;41.80;43.60
11838;DHT22;5978;51.020;6.764;2022-07-23T14:15:06;42.60;42.70
11838;DHT22;5978;51.020;6.764;2022-07-23T14:17:33;43.40;42.00
11838;DHT22;5978;51.020;6.764;2022-07-23T14:19:59;44.20;40.50
11838;DHT22;5978;51.020;6.764;2022-07-23T14:22:25;43.80;39.30
11838;DHT22;5978;51.020;6.764;2022-07-23T14:24:51;44.30;40.00
11838;DHT22;5978;51.020;6.764;2022-07-23T14:27:17;45.40;39.30
11838;DHT22;5978;51.020;6.764;2022-07-23T14:29:42;43.50;38.50
11838;DHT22;5978;51.020;6.764;2022-07-23T14:32:08;42.80;39.80
11838;DHT22;5978;51.020;6.764;2022-07-23T14:34:34;42.80;40.60
11838;DHT22;5978;51.020;6.764;2022-07-23T14:37:00;42.40;40.70
11838;DHT22;5978;51.020;6.764;2022-07-23T14:39:26;42.90;40.90
11838;DHT22;5978;51.020;6.764;2022-07-23T14:41:52;41.80;40.00
11838;DHT22;5978;51.020;6.764;2022-07-23T14:44:18;42.00;40.70
11838;DHT22;5978;51.020;6.764;2022-07-23T14:46:44;42.00;40.70
11838;DHT22;5978;51.020;6.764;2022-07-23T14:49:09;41.80;40.30
11838;DHT22;5978;51.020;6.764;2022-07-23T14:51:35;42.50;40.80
11838;DHT22;5978;51.020;6.764;2022-07-23T14:54:02;43.20;40.60
11838;DHT22;5978;51.020;6.764;2022-07-23T14:56:28;43.80;39.40
11838;DHT22;5978;51.020;6.764;2022-07-23T14:58:54;44.20;39.60
11838;DHT22;5978;51.020;6.764;2022-07-23T15:01:22;44.00;39.30
11838;DHT22;5978;51.020;6.764;2022-07-23T15:03:48;44.20;38.20
11838;DHT22;5978;51.020;6.764;2022-07-23T15:06:15;43.40;38.60
11838;DHT22;5978;51.020;6.764;2022-07-23T15:08:40;44.10;39.30
11838;DHT22;5978;51.020;6.764;2022-07-23T15:11:06;44.30;38.70
11838;DHT22;5978;51.020;6.764;2022-07-23T15:13:34;44.00;39.50
11838;DHT22;5978;51.020;6.764;2022-07-23T15:16:00;43.80;39.40
11838;DHT22;5978;51.020;6.764;2022-07-23T15:18:26;44.30;38.80
11838;DHT22;5978;51.020;6.764;2022-07-23T15:20:52;42.90;39.00
11838;DHT22;5978;51.020;6.764;2022-07-23T15:23:18;41.10;39.40
11838;DHT22;5978;51.020;6.764;2022-07-23T15:25:43;41.00;40.60
11838;DHT22;5978;51.020;6.764;2022-07-23T15:28:09;40.90;41.40
11838;DHT22;5978;51.020;6.764;2022-07-23T15:30:34;40.70;41.60
11838;DHT22;5978;51.020;6.764;2022-07-23T15:33:00;40.90;41.50
11838;DHT22;5978;51.020;6.764;2022-07-23T15:35:26;40.80;41.20
11838;DHT22;5978;51.020;6.764;2022-07-23T15:37:51;40.50;41.60
11838;DHT22;5978;51.020;6.764;2022-07-23T15:40:17;40.10;41.10
11838;DHT22;5978;51.020;6.764;2022-07-23T15:42:42;38.30;40.90
11838;DHT22;5978;51.020;6.764;2022-07-23T15:45:08;37.60;43.20
11838;DHT22;5978;51.020;6.764;2022-07-23T15:47:34;36.50;43.80
11838;DHT22;5978;51.020;6.764;2022-07-23T15:50:00;35.80;45.30
11838;DHT22;5978;51.020;6.764;2022-07-23T15:52:25;35.20;46.30
11838;DHT22;5978;51.020;6.764;2022-07-23T15:54:51;34.50;46.90
11838;DHT22;5978;51.020;6.764;2022-07-23T15:57:17;34.20;47.90
11838;DHT22;5978;51.020;6.764;2022-07-23T15:59:42;33.90;48.80
11838;DHT22;5978;51.020;6.764;2022-07-23T16:02:08;33.50;48.20
11838;DHT22;5978;51.020;6.764;2022-07-23T16:04:34;32.90;48.70
11838;DHT22;5978;51.020;6.764;2022-07-23T16:06:59;32.10;49.90
11838;DHT22;5978;51.020;6.764;2022-07-23T16:09:25;31.40;50.90
11838;DHT22;5978;51.020;6.764;2022-07-23T16:11:51;31.50;52.50
11838;DHT22;5978;51.020;6.764;2022-07-23T16:14:18;31.40;52.50
11838;DHT22;5978;51.020;6.764;2022-07-23T16:16:44;31.30;52.90
11838;DHT22;5978;51.020;6.764;2022-07-23T16:19:10;31.10;53.00
11838;DHT22;5978;51.020;6.764;2022-07-23T16:21:36;31.10;53.30
11838;DHT22;5978;51.020;6.764;2022-07-23T16:24:01;31.10;52.50
11838;DHT22;5978;51.020;6.764;2022-07-23T16:26:27;31.00;52.00
11838;DHT22;5978;51.020;6.764;2022-07-23T16:28:53;30.80;52.40
11838;DHT22;5978;51.020;6.764;2022-07-23T16:31:19;30.40;52.40
11838;DHT22;5978;51.020;6.764;2022-07-23T16:33:44;30.10;52.70